sensor_id;sensor_type;location;lat;lon;timestamp;pressure;altitude;pressure_sealevel;temperature;humidity
69035;BME280;56091;55.756;37.412;2023-04-08T00:04:09;100097.66;;;5.04;38.93
69035;BME280;56091;55.756;37.412;2023-04-08T00:09:11;100094.34;;;5.02;39.32
69035;BME280;56091;55.756;37.412;2023-04-08T00:14:13;100096.03;;;5.03;39.32
69035;BME280;56091;55.756;37.412;2023-04-08T00:19:13;100088.63;;;5.05;39.47
69035;BME280;56091;55.756;37.412;2023-04-08T00:24:14;100074.41;;;4.98;39.71
69035;BME280;56091;55.756;37.412;2023-04-08T00:29:16;100086.09;;;4.90;40.29
69035;BME280;56091;55.756;37.412;2023-04-08T00:34:16;100091.25;;;4.92;40.44
69035;BME280;56091;55.756;37.412;2023-04-08T00:39:17;100092.44;;;4.89;40.62
69035;BME280;56091;55.756;37.412;2023-04-08T00:44:18;100093.03;;;4.84;41.05
69035;BME280;56091;55.756;37.412;2023-04-08T00:49:19;100077.13;;;4.69;41.33
69035;BME280;56091;55.756;37.412;2023-04-08T00:54:20;100073.00;;;4.67;41.69
69035;BME280;56091;55.756;37.412;2023-04-08T00:59:21;100087.00;;;4.69;41.68
69035;BME280;56091;55.756;37.412;2023-04-08T01:04:39;100102.19;;;4.68;42.07
69035;BME280;56091;55.756;37.412;2023-04-08T01:09:45;100093.75;;;4.65;42.42
69035;BME280;56091;55.756;37.412;2023-04-08T01:14:49;100088.53;;;4.57;42.22
69035;BME280;56091;55.756;37.412;2023-04-08T01:19:53;100066.88;;;4.38;42.53
69035;BME280;56091;55.756;37.412;2023-04-08T01:25:01;100083.00;;;4.52;42.78
69035;BME280;56091;55.756;37.412;2023-04-08T01:30:05;100087.25;;;4.46;42.83
69035;BME280;56091;55.756;37.412;2023-04-08T01:35:08;100094.44;;;4.45;43.12
69035;BME280;56091;55.756;37.412;2023-04-08T01:40:10;100085.75;;;4.37;43.37
69035;BME280;56091;55.756;37.412;2023-04-08T01:45:13;100090.22;;;4.29;43.67
69035;BME280;56091;55.756;37.412;2023-04-08T01:50:15;100100.66;;;4.24;43.99
69035;BME280;56091;55.756;37.412;2023-04-08T01:55:16;100098.41;;;4.28;44.27
69035;BME280;56091;55.756;37.412;2023-04-08T02:00:22;100087.09;;;4.26;44.35
69035;BME280;56091;55.756;37.412;2023-04-08T02:05:25;100097.16;;;4.24;44.51
69035;BME280;56091;55.756;37.412;2023-04-08T02:10:26;100095.13;;;4.26;44.68
69035;BME280;56091;55.756;37.412;2023-04-08T02:15:27;100086.03;;;4.20;44.98
69035;BME280;56091;55.756;37.412;2023-04-08T02:20:36;100089.09;;;4.17;44.94
69035;BME280;56091;55.756;37.412;2023-04-08T02:25:39;100088.41;;;4.08;45.75
69035;BME280;56091;55.756;37.412;2023-04-08T02:30:49;100083.69;;;4.10;45.81
69035;BME280;56091;55.756;37.412;2023-04-08T02:35:51;100082.97;;;3.95;45.80
69035;BME280;56091;55.756;37.412;2023-04-08T02:40:56;100098.00;;;4.03;45.87
69035;BME280;56091;55.756;37.412;2023-04-08T02:46:00;100102.31;;;4.04;46.13
69035;BME280;56091;55.756;37.412;2023-04-08T02:51:04;100100.50;;;4.04;46.05
69035;BME280;56091;55.756;37.412;2023-04-08T02:56:05;100105.44;;;4.07;45.95
69035;BME280;56091;55.756;37.412;2023-04-08T03:01:06;100108.09;;;4.07;46.23
69035;BME280;56091;55.756;37.412;2023-04-08T03:06:06;100110.22;;;4.12;50.28
69035;BME280;56091;55.756;37.412;2023-04-08T03:11:07;100110.47;;;4.45;45.66
69035;BME280;56091;55.756;37.412;2023-04-08T03:16:09;100114.09;;;4.66;45.92
69035;BME280;56091;55.756;37.412;2023-04-08T03:21:09;100109.53;;;4.95;44.81
69035;BME280;56091;55.756;37.412;2023-04-08T03:26:10;100117.41;;;5.03;45.20
69035;BME280;56091;55.756;37.412;2023-04-08T03:31:11;100112.72;;;5.12;43.85
69035;BME280;56091;55.756;37.412;2023-04-08T03:36:14;100113.47;;;4.99;44.25
69035;BME280;56091;55.756;37.412;2023-04-08T03:41:15;100114.00;;;4.81;44.33
69035;BME280;56091;55.756;37.412;2023-04-08T03:46:16;100109.91;;;4.50;45.04
69035;BME280;56091;55.756;37.412;2023-04-08T03:51:17;100108.13;;;4.64;45.10
69035;BME280;56091;55.756;37.412;2023-04-08T03:56:18;100110.25;;;4.75;44.88
69035;BME280;56091;55.756;37.412;2023-04-08T04:01:18;100113.00;;;4.88;44.80
69035;BME280;56091;55.756;37.412;2023-04-08T04:06:19;100120.03;;;4.96;44.63
69035;BME280;56091;55.756;37.412;2023-04-08T04:11:20;100114.13;;;5.01;44.66
69035;BME280;56091;55.756;37.412;2023-04-08T04:16:22;100121.97;;;5.09;44.87
69035;BME280;56091;55.756;37.412;2023-04-08T04:21:22;100125.03;;;5.06;44.82
69035;BME280;56091;55.756;37.412;2023-04-08T04:26:23;100116.38;;;5.04;44.90
69035;BME280;56091;55.756;37.412;2023-04-08T04:31:24;100129.63;;;5.19;44.78
69035;BME280;56091;55.756;37.412;2023-04-08T04:36:28;100130.91;;;5.30;45.06
69035;BME280;56091;55.756;37.412;2023-04-08T04:41:31;100141.81;;;5.35;45.03
69035;BME280;56091;55.756;37.412;2023-04-08T04:46:32;100139.00;;;5.43;45.00
69035;BME280;56091;55.756;37.412;2023-04-08T04:51:33;100129.75;;;5.59;44.59
69035;BME280;56091;55.756;37.412;2023-04-08T04:56:33;100122.59;;;5.73;44.24
69035;BME280;56091;55.756;37.412;2023-04-08T05:01:35;100138.91;;;5.91;43.37
69035;BME280;56091;55.756;37.412;2023-04-08T05:06:35;100135.88;;;6.08;43.26
69035;BME280;56091;55.756;37.412;2023-04-08T05:11:36;100148.03;;;6.23;43.44
69035;BME280;56091;55.756;37.412;2023-04-08T05:16:37;100149.50;;;6.39;42.88
69035;BME280;56091;55.756;37.412;2023-04-08T05:21:38;100157.94;;;6.50;42.49
69035;BME280;56091;55.756;37.412;2023-04-08T05:26:39;100165.34;;;6.54;43.55
69035;BME280;56091;55.756;37.412;2023-04-08T05:31:40;100158.97;;;6.62;42.50
69035;BME280;56091;55.756;37.412;2023-04-08T05:36:41;100162.69;;;6.74;42.13
69035;BME280;56091;55.756;37.412;2023-04-08T05:41:42;100171.09;;;6.84;41.85
69035;BME280;56091;55.756;37.412;2023-04-08T05:46:42;100164.69;;;6.99;41.95
69035;BME280;56091;55.756;37.412;2023-04-08T05:51:43;100167.50;;;7.24;41.33
69035;BME280;56091;55.756;37.412;2023-04-08T05:56:44;100166.66;;;7.37;41.08
69035;BME280;56091;55.756;37.412;2023-04-08T06:01:46;100164.16;;;7.42;40.96
69035;BME280;56091;55.756;37.412;2023-04-08T06:06:46;100174.19;;;7.60;40.80
69035;BME280;56091;55.756;37.412;2023-04-08T06:11:47;100167.75;;;7.74;40.79
69035;BME280;56091;55.756;37.412;2023-04-08T06:16:50;100151.44;;;7.69;40.86
69035;BME280;56091;55.756;37.412;2023-04-08T06:21:52;100164.19;;;7.80;40.44
69035;BME280;56091;55.756;37.412;2023-04-08T06:26:58;100152.97;;;7.90;40.47
69035;BME280;56091;55.756;37.412;2023-04-08T06:31:58;100165.13;;;7.99;40.11
69035;BME280;56091;55.756;37.412;2023-04-08T06:36:59;100162.53;;;8.18;39.61
69035;BME280;56091;55.756;37.412;2023-04-08T06:42:01;100168.00;;;8.30;39.92
69035;BME280;56091;55.756;37.412;2023-04-08T06:47:12;100176.81;;;8.44;39.39
69035;BME280;56091;55.756;37.412;2023-04-08T06:52:13;100165.91;;;8.64;38.86
69035;BME280;56091;55.756;37.412;2023-04-08T06:57:14;100168.75;;;8.69;38.56
69035;BME280;56091;55.756;37.412;2023-04-08T07:02:18;100156.59;;;8.85;38.54
69035;BME280;56091;55.756;37.412;2023-04-08T07:07:19;100170.69;;;9.05;38.40
69035;BME280;56091;55.756;37.412;2023-04-08T07:12:20;100165.00;;;9.13;38.23
69035;BME280;56091;55.756;37.412;2023-04-08T07:17:24;100163.88;;;9.21;38.03
69035;BME280;56091;55.756;37.412;2023-04-08T07:22:27;100161.03;;;9.34;37.96
69035;BME280;56091;55.756;37.412;2023-04-08T07:27:32;100153.19;;;9.33;38.09
69035;BME280;56091;55.756;37.412;2023-04-08T07:32:36;100159.84;;;9.49;37.73
69035;BME280;56091;55.756;37.412;2023-04-08T07:37:37;100159.19;;;9.65;37.30
69035;BME280;56091;55.756;37.412;2023-04-08T07:42:37;100159.97;;;9.84;36.95
69035;BME280;56091;55.756;37.412;2023-04-08T07:47:38;100160.50;;;9.93;36.89
69035;BME280;56091;55.756;37.412;2023-04-08T07:52:40;100156.22;;;10.15;36.26
69035;BME280;56091;55.756;37.412;2023-04-08T07:57:40;100138.97;;;10.05;36.26
69035;BME280;56091;55.756;37.412;2023-04-08T08:02:41;100150.34;;;10.19;36.17
69035;BME280;56091;55.756;37.412;2023-04-08T08:07:42;100160.16;;;10.31;35.71
69035;BME280;56091;55.756;37.412;2023-04-08T08:12:45;100158.53;;;10.30;35.03
69035;BME280;56091;55.756;37.412;2023-04-08T08:17:46;100151.25;;;10.31;34.95
69035;BME280;56091;55.756;37.412;2023-04-08T08:22:49;100151.63;;;10.46;34.63
69035;BME280;56091;55.756;37.412;2023-04-08T08:27:50;100151.41;;;10.60;34.74
69035;BME280;56091;55.756;37.412;2023-04-08T08:32:55;100157.88;;;10.59;35.04
69035;BME280;56091;55.756;37.412;2023-04-08T08:37:58;100145.06;;;10.66;33.82
69035;BME280;56091;55.756;37.412;2023-04-08T08:43:02;100142.13;;;10.67;34.10
69035;BME280;56091;55.756;37.412;2023-04-08T08:48:05;100138.75;;;10.72;34.48
69035;BME280;56091;55.756;37.412;2023-04-08T08:53:08;100143.66;;;10.87;33.86
69035;BME280;56091;55.756;37.412;2023-04-08T08:58:09;100137.94;;;10.83;33.31
69035;BME280;56091;55.756;37.412;2023-04-08T09:08:30;100131.75;;;11.11;33.65
69035;BME280;56091;55.756;37.412;2023-04-08T09:13:34;100124.03;;;11.03;33.38
69035;BME280;56091;55.756;37.412;2023-04-08T09:18:39;100126.38;;;11.11;33.03
69035;BME280;56091;55.756;37.412;2023-04-08T09:23:49;100133.41;;;11.12;32.83
69035;BME280;56091;55.756;37.412;2023-04-08T09:29:04;100119.19;;;11.29;32.85
69035;BME280;56091;55.756;37.412;2023-04-08T09:34:16;100120.94;;;11.35;32.94
69035;BME280;56091;55.756;37.412;2023-04-08T09:39:19;100127.25;;;11.41;33.43
69035;BME280;56091;55.756;37.412;2023-04-08T09:44:23;100117.19;;;11.65;33.14
69035;BME280;56091;55.756;37.412;2023-04-08T09:49:39;100121.97;;;11.75;32.93
69035;BME280;56091;55.756;37.412;2023-04-08T09:54:54;100123.22;;;11.84;32.33
69035;BME280;56091;55.756;37.412;2023-04-08T10:00:14;100116.38;;;12.10;32.42
69035;BME280;56091;55.756;37.412;2023-04-08T10:05:17;100095.31;;;12.12;31.29
69035;BME280;56091;55.756;37.412;2023-04-08T10:10:18;100113.94;;;12.42;31.37
69035;BME280;56091;55.756;37.412;2023-04-08T10:25:52;100101.16;;;12.55;30.01
69035;BME280;56091;55.756;37.412;2023-04-08T10:30:54;100099.78;;;12.74;30.66
69035;BME280;56091;55.756;37.412;2023-04-08T10:36:11;100101.13;;;12.72;30.75
69035;BME280;56091;55.756;37.412;2023-04-08T10:41:22;100099.72;;;12.69;29.72
69035;BME280;56091;55.756;37.412;2023-04-08T10:46:26;100098.22;;;12.78;29.30
69035;BME280;56091;55.756;37.412;2023-04-08T10:51:31;100088.75;;;12.98;30.24
69035;BME280;56091;55.756;37.412;2023-04-08T10:56:51;100087.06;;;13.14;28.77
69035;BME280;56091;55.756;37.412;2023-04-08T11:01:53;100086.41;;;13.06;29.39
69035;BME280;56091;55.756;37.412;2023-04-08T11:06:54;100075.16;;;13.37;29.11
69035;BME280;56091;55.756;37.412;2023-04-08T11:11:57;100072.25;;;13.21;28.98
69035;BME280;56091;55.756;37.412;2023-04-08T11:16:58;100066.47;;;13.35;29.40
69035;BME280;56091;55.756;37.412;2023-04-08T11:22:01;100056.97;;;13.59;29.34
69035;BME280;56091;55.756;37.412;2023-04-08T11:27:05;100055.69;;;13.67;29.93
69035;BME280;56091;55.756;37.412;2023-04-08T11:32:06;100069.31;;;13.72;30.21
69035;BME280;56091;55.756;37.412;2023-04-08T11:37:08;100042.38;;;13.65;30.26
69035;BME280;56091;55.756;37.412;2023-04-08T11:42:25;100044.91;;;13.72;29.99
69035;BME280;56091;55.756;37.412;2023-04-08T11:47:32;100025.25;;;13.87;29.79
69035;BME280;56091;55.756;37.412;2023-04-08T11:52:59;100039.72;;;13.71;29.57
69035;BME280;56091;55.756;37.412;2023-04-08T11:58:03;100037.69;;;13.83;29.75
69035;BME280;56091;55.756;37.412;2023-04-08T12:03:06;100023.28;;;13.82;29.08
69035;BME280;56091;55.756;37.412;2023-04-08T12:08:10;100013.34;;;13.93;28.94
69035;BME280;56091;55.756;37.412;2023-04-08T12:13:11;100027.81;;;14.04;28.95
69035;BME280;56091;55.756;37.412;2023-04-08T12:18:12;100032.38;;;14.36;28.25
69035;BME280;56091;55.756;37.412;2023-04-08T12:23:13;100035.13;;;14.41;28.45
69035;BME280;56091;55.756;37.412;2023-04-08T12:28:14;100022.38;;;14.41;28.52
69035;BME280;56091;55.756;37.412;2023-04-08T12:33:15;100020.50;;;14.47;28.53
69035;BME280;56091;55.756;37.412;2023-04-08T12:38:15;100021.75;;;14.72;28.28
69035;BME280;56091;55.756;37.412;2023-04-08T12:43:17;100022.59;;;14.72;28.33
69035;BME280;56091;55.756;37.412;2023-04-08T12:48:17;100013.13;;;14.80;28.67
69035;BME280;56091;55.756;37.412;2023-04-08T12:53:18;99997.09;;;14.78;28.67
69035;BME280;56091;55.756;37.412;2023-04-08T12:58:19;99941.81;;;14.52;29.06
69035;BME280;56091;55.756;37.412;2023-04-08T13:03:20;99951.19;;;14.87;28.77
69035;BME280;56091;55.756;37.412;2023-04-08T13:08:21;99985.56;;;15.39;28.48
69035;BME280;56091;55.756;37.412;2023-04-08T13:13:22;99990.75;;;15.51;28.31
69035;BME280;56091;55.756;37.412;2023-04-08T13:18:24;99979.56;;;15.32;28.59
69035;BME280;56091;55.756;37.412;2023-04-08T13:23:25;99988.00;;;15.26;28.53
69035;BME280;56091;55.756;37.412;2023-04-08T13:28:26;99978.53;;;15.49;27.97
69035;BME280;56091;55.756;37.412;2023-04-08T13:33:27;99969.28;;;15.60;27.82
69035;BME280;56091;55.756;37.412;2023-04-08T13:38:28;99969.84;;;15.88;27.51
69035;BME280;56091;55.756;37.412;2023-04-08T13:43:30;99967.13;;;15.88;27.54
69035;BME280;56091;55.756;37.412;2023-04-08T13:48:31;99960.56;;;15.42;28.16
69035;BME280;56091;55.756;37.412;2023-04-08T13:53:32;99962.19;;;15.28;28.26
69035;BME280;56091;55.756;37.412;2023-04-08T13:58:32;99961.06;;;15.09;29.10
69035;BME280;56091;55.756;37.412;2023-04-08T14:03:33;99902.06;;;14.94;29.14
69035;BME280;56091;55.756;37.412;2023-04-08T14:08:34;99951.53;;;15.11;28.99
69035;BME280;56091;55.756;37.412;2023-04-08T14:13:35;99947.78;;;15.53;28.75
69035;BME280;56091;55.756;37.412;2023-04-08T14:18:38;99934.59;;;16.58;26.59
69035;BME280;56091;55.756;37.412;2023-04-08T14:23:40;99946.94;;;17.00;26.18
69035;BME280;56091;55.756;37.412;2023-04-08T14:28:41;99937.38;;;17.03;26.29
69035;BME280;56091;55.756;37.412;2023-04-08T14:33:42;99942.69;;;16.68;26.96
69035;BME280;56091;55.756;37.412;2023-04-08T14:38:43;99942.44;;;16.65;26.94
69035;BME280;56091;55.756;37.412;2023-04-08T14:43:44;99937.13;;;16.29;27.12
69035;BME280;56091;55.756;37.412;2023-04-08T14:48:44;99941.31;;;15.75;28.11
69035;BME280;56091;55.756;37.412;2023-04-08T14:53:45;99945.34;;;15.57;28.81
69035;BME280;56091;55.756;37.412;2023-04-08T14:58:48;99937.72;;;15.33;28.46
69035;BME280;56091;55.756;37.412;2023-04-08T15:03:50;99923.00;;;14.93;29.16
69035;BME280;56091;55.756;37.412;2023-04-08T15:08:50;99931.94;;;14.94;29.00
69035;BME280;56091;55.756;37.412;2023-04-08T15:13:57;99922.47;;;15.07;29.43
69035;BME280;56091;55.756;37.412;2023-04-08T15:18:58;99926.56;;;15.25;28.93
69035;BME280;56091;55.756;37.412;2023-04-08T15:24:01;99930.66;;;15.53;28.20
69035;BME280;56091;55.756;37.412;2023-04-08T15:29:02;99933.13;;;15.95;27.51
69035;BME280;56091;55.756;37.412;2023-04-08T15:34:04;99931.75;;;15.41;28.66
69035;BME280;56091;55.756;37.412;2023-04-08T15:39:04;99920.81;;;15.00;28.88
69035;BME280;56091;55.756;37.412;2023-04-08T15:44:05;99932.75;;;14.84;28.82
69035;BME280;56091;55.756;37.412;2023-04-08T15:49:06;99920.63;;;14.44;29.97
69035;BME280;56091;55.756;37.412;2023-04-08T15:54:07;99936.66;;;14.03;30.30
69035;BME280;56091;55.756;37.412;2023-04-08T15:59:07;99932.16;;;13.76;30.78
69035;BME280;56091;55.756;37.412;2023-04-08T16:04:08;99939.50;;;13.48;30.92
69035;BME280;56091;55.756;37.412;2023-04-08T16:09:09;99925.16;;;13.21;31.38
69035;BME280;56091;55.756;37.412;2023-04-08T16:14:11;99937.13;;;12.98;32.08
69035;BME280;56091;55.756;37.412;2023-04-08T16:19:12;99944.50;;;12.80;32.31
69035;BME280;56091;55.756;37.412;2023-04-08T16:24:13;99934.19;;;12.55;32.56
69035;BME280;56091;55.756;37.412;2023-04-08T16:29:15;99943.59;;;12.30;33.43
69035;BME280;56091;55.756;37.412;2023-04-08T16:34:16;99953.16;;;12.16;33.85
69035;BME280;56091;55.756;37.412;2023-04-08T16:39:17;99951.22;;;11.95;34.40
69035;BME280;56091;55.756;37.412;2023-04-08T16:44:20;99953.41;;;11.81;34.72
69035;BME280;56091;55.756;37.412;2023-04-08T16:49:21;99964.06;;;11.70;35.03
69035;BME280;56091;55.756;37.412;2023-04-08T16:54:22;99967.41;;;11.61;35.31
69035;BME280;56091;55.756;37.412;2023-04-08T16:59:23;99968.13;;;11.39;35.90
69035;BME280;56091;55.756;37.412;2023-04-08T17:04:24;99968.44;;;11.26;36.53
69035;BME280;56091;55.756;37.412;2023-04-08T17:09:24;99966.47;;;11.21;36.87
69035;BME280;56091;55.756;37.412;2023-04-08T17:14:26;99970.38;;;11.13;37.20
69035;BME280;56091;55.756;37.412;2023-04-08T17:19:26;99975.16;;;11.11;37.68
69035;BME280;56091;55.756;37.412;2023-04-08T17:24:27;99962.47;;;10.95;38.01
69035;BME280;56091;55.756;37.412;2023-04-08T17:29:28;99973.03;;;10.97;38.20
69035;BME280;56091;55.756;37.412;2023-04-08T17:34:29;99966.38;;;10.87;38.41
69035;BME280;56091;55.756;37.412;2023-04-08T17:39:32;99967.22;;;10.76;38.76
69035;BME280;56091;55.756;37.412;2023-04-08T17:44:33;99971.78;;;10.75;39.37
69035;BME280;56091;55.756;37.412;2023-04-08T17:49:34;99970.88;;;10.70;39.52
69035;BME280;56091;55.756;37.412;2023-04-08T17:54:35;99977.56;;;10.67;39.43
69035;BME280;56091;55.756;37.412;2023-04-08T17:59:35;99986.16;;;10.64;39.87
69035;BME280;56091;55.756;37.412;2023-04-08T18:04:36;99982.25;;;10.60;40.24
69035;BME280;56091;55.756;37.412;2023-04-08T18:09:37;99977.00;;;10.53;40.36
69035;BME280;56091;55.756;37.412;2023-04-08T18:14:38;99981.59;;;10.53;40.80
69035;BME280;56091;55.756;37.412;2023-04-08T18:19:39;99977.47;;;10.50;40.54
69035;BME280;56091;55.756;37.412;2023-04-08T18:24:40;99965.66;;;10.40;41.01
69035;BME280;56091;55.756;37.412;2023-04-08T18:29:41;99972.69;;;10.41;41.03
69035;BME280;56091;55.756;37.412;2023-04-08T18:34:42;99941.50;;;10.21;40.99
69035;BME280;56091;55.756;37.412;2023-04-08T18:39:43;99976.19;;;10.29;41.24
69035;BME280;56091;55.756;37.412;2023-04-08T18:44:43;99949.03;;;10.07;41.63
69035;BME280;56091;55.756;37.412;2023-04-08T18:49:49;99982.16;;;10.20;41.87
69035;BME280;56091;55.756;37.412;2023-04-08T18:54:50;99978.31;;;10.15;42.11
69035;BME280;56091;55.756;37.412;2023-04-08T18:59:52;99969.03;;;10.00;42.00
69035;BME280;56091;55.756;37.412;2023-04-08T19:04:53;99980.28;;;9.96;42.04
69035;BME280;56091;55.756;37.412;2023-04-08T19:09:58;99975.38;;;9.93;42.36
69035;BME280;56091;55.756;37.412;2023-04-08T19:14:59;99956.50;;;9.82;42.54
69035;BME280;56091;55.756;37.412;2023-04-08T19:20:04;99968.31;;;9.81;42.84
69035;BME280;56091;55.756;37.412;2023-04-08T19:25:05;99965.97;;;9.72;43.11
69035;BME280;56091;55.756;37.412;2023-04-08T19:30:07;99979.44;;;9.72;43.60
69035;BME280;56091;55.756;37.412;2023-04-08T19:35:10;99974.75;;;9.68;43.34
69035;BME280;56091;55.756;37.412;2023-04-08T19:40:11;99974.50;;;9.69;43.73
69035;BME280;56091;55.756;37.412;2023-04-08T19:45:12;99966.31;;;9.64;43.56
69035;BME280;56091;55.756;37.412;2023-04-08T19:50:13;99978.28;;;9.68;43.71
69035;BME280;56091;55.756;37.412;2023-04-08T19:55:14;99978.50;;;9.67;43.36
69035;BME280;56091;55.756;37.412;2023-04-08T20:00:15;99976.97;;;9.59;43.05
69035;BME280;56091;55.756;37.412;2023-04-08T20:05:16;99981.53;;;9.58;43.21
69035;BME280;56091;55.756;37.412;2023-04-08T20:10:17;99985.97;;;9.53;43.25
69035;BME280;56091;55.756;37.412;2023-04-08T20:15:18;99993.47;;;9.51;43.42
69035;BME280;56091;55.756;37.412;2023-04-08T20:20:19;99986.53;;;9.43;43.79
69035;BME280;56091;55.756;37.412;2023-04-08T20:25:20;99995.06;;;9.40;43.83
69035;BME280;56091;55.756;37.412;2023-04-08T20:30:21;99993.66;;;9.37;44.20
69035;BME280;56091;55.756;37.412;2023-04-08T20:35:27;99990.59;;;9.34;44.09
69035;BME280;56091;55.756;37.412;2023-04-08T20:40:28;99971.94;;;9.21;44.22
69035;BME280;56091;55.756;37.412;2023-04-08T20:45:29;99995.03;;;9.28;44.58
69035;BME280;56091;55.756;37.412;2023-04-08T20:50:30;99978.25;;;9.14;44.75
69035;BME280;56091;55.756;37.412;2023-04-08T20:55:30;99993.47;;;9.21;45.29
69035;BME280;56091;55.756;37.412;2023-04-08T21:00:32;99987.38;;;9.13;45.29
69035;BME280;56091;55.756;37.412;2023-04-08T21:05:36;99984.91;;;9.12;45.44
69035;BME280;56091;55.756;37.412;2023-04-08T21:10:37;99970.00;;;8.97;45.75
69035;BME280;56091;55.756;37.412;2023-04-08T21:15:38;99966.78;;;8.89;46.09
69035;BME280;56091;55.756;37.412;2023-04-08T21:20:38;99978.50;;;8.94;46.05
69035;BME280;56091;55.756;37.412;2023-04-08T21:25:40;99981.41;;;8.93;46.34
69035;BME280;56091;55.756;37.412;2023-04-08T21:30:41;99981.28;;;8.88;46.51
69035;BME280;56091;55.756;37.412;2023-04-08T21:35:43;99974.69;;;8.84;47.09
69035;BME280;56091;55.756;37.412;2023-04-08T21:40:43;99987.44;;;8.76;47.15
69035;BME280;56091;55.756;37.412;2023-04-08T21:45:44;99982.13;;;8.70;47.18
69035;BME280;56091;55.756;37.412;2023-04-08T21:50:46;99968.47;;;8.53;47.24
69035;BME280;56091;55.756;37.412;2023-04-08T21:55:47;99985.34;;;8.60;47.77
69035;BME280;56091;55.756;37.412;2023-04-08T22:00:47;99984.81;;;8.51;47.84
69035;BME280;56091;55.756;37.412;2023-04-08T22:05:50;99995.19;;;8.48;47.95
69035;BME280;56091;55.756;37.412;2023-04-08T22:10:50;99987.00;;;8.43;48.20
69035;BME280;56091;55.756;37.412;2023-04-08T22:15:52;99981.84;;;8.34;48.29
69035;BME280;56091;55.756;37.412;2023-04-08T22:20:55;99994.25;;;8.35;48.43
69035;BME280;56091;55.756;37.412;2023-04-08T22:25:55;99992.00;;;8.32;48.82
69035;BME280;56091;55.756;37.412;2023-04-08T22:30:56;99999.69;;;8.29;48.94
69035;BME280;56091;55.756;37.412;2023-04-08T22:35:57;99991.25;;;8.25;49.17
69035;BME280;56091;55.756;37.412;2023-04-08T22:40:57;99988.03;;;8.16;49.39
69035;BME280;56091;55.756;37.412;2023-04-08T22:45:58;99989.91;;;8.16;49.33
69035;BME280;56091;55.756;37.412;2023-04-08T22:51:00;99996.75;;;8.12;49.74
69035;BME280;56091;55.756;37.412;2023-04-08T22:56:02;99993.72;;;8.08;49.79
69035;BME280;56091;55.756;37.412;2023-04-08T23:01:13;100001.41;;;8.05;49.90
69035;BME280;56091;55.756;37.412;2023-04-08T23:06:14;99986.59;;;7.95;50.04
69035;BME280;56091;55.756;37.412;2023-04-08T23:11:16;99994.06;;;7.93;50.41
69035;BME280;56091;55.756;37.412;2023-04-08T23:16:18;99996.94;;;7.92;50.29
69035;BME280;56091;55.756;37.412;2023-04-08T23:21:19;100001.13;;;7.88;50.56
69035;BME280;56091;55.756;37.412;2023-04-08T23:26:22;99999.91;;;7.84;50.50
69035;BME280;56091;55.756;37.412;2023-04-08T23:31:24;99985.94;;;7.75;50.78
69035;BME280;56091;55.756;37.412;2023-04-08T23:36:25;100000.16;;;7.75;50.74
69035;BME280;56091;55.756;37.412;2023-04-08T23:41:27;100002.47;;;7.72;50.85
69035;BME280;56091;55.756;37.412;2023-04-08T23:46:27;99999.03;;;7.65;50.84
69035;BME280;56091;55.756;37.412;2023-04-08T23:51:28;100004.22;;;7.59;50.87
69035;BME280;56091;55.756;37.412;2023-04-08T23:56:29;100003.22;;;7.54;51.08
